Terminal Aerodrome Forecast
Issued by NWS

Home | Current Version | Previous Version | Text Only | Print | Product List | Glossary On
Versions: 1 2 3 4 5 6 7 8 9 10 11 12 13 14 15
435
FTUS45 KABQ 052338
TAFSAF
TAF
KSAF 052338Z 0600/0624 33010KT P6SM SCT250
     FM060200 36007KT P6SM SCT150 BKN250
     FM061300 15008KT P6SM BKN150
     FM061900 20012G20KT P6SM SCT150=

USA.gov is the U.S. government's official web portal to all federal, state and local government web resources and services.